createdAt,value
2019-01-10T00:01:34.779Z,98636.13
2019-01-10T00:04:02.773Z,98635.06
2019-01-10T00:06:31.772Z,98648.67
2019-01-10T00:09:06.799Z,98648.90
2019-01-10T00:11:34.845Z,98652.90
2019-01-10T00:14:02.695Z,98656.89
2019-01-10T00:16:30.601Z,98654.23
2019-01-10T00:18:59.304Z,98662.22
2019-01-10T00:21:27.536Z,98656.38
2019-01-10T00:23:55.748Z,98647.02
2019-01-10T00:26:23.589Z,98653.12
2019-01-10T00:28:52.792Z,98665.92
2019-01-10T00:31:20.771Z,98666.73
2019-01-10T00:33:48.602Z,98674.17
2019-01-10T00:36:17.753Z,98668.58
2019-01-10T00:38:45.768Z,98658.41
2019-01-10T00:41:13.689Z,98658.41
2019-01-10T00:43:42.763Z,98673.39
2019-01-10T00:46:10.698Z,98678.94
2019-01-10T00:48:39.787Z,98689.60
2019-01-10T00:51:08.325Z,98688.01
2019-01-10T00:53:36.791Z,98689.89
2019-01-10T00:56:05.781Z,98691.45
2019-01-10T00:58:33.845Z,98692.00
2019-01-10T01:01:02.356Z,98697.07
2019-01-10T01:03:30.888Z,98697.59
2019-01-10T01:05:59.789Z,98706.91
2019-01-10T01:08:27.714Z,98706.91
2019-01-10T01:10:55.702Z,98708.72
2019-01-10T01:13:23.701Z,98708.72
2019-01-10T01:15:52.638Z,98708.17
2019-01-10T01:18:21.921Z,98711.72
2019-01-10T01:20:50.806Z,98714.90
2019-01-10T01:23:19.857Z,98714.90
2019-01-10T01:25:47.831Z,98709.84
2019-01-10T01:28:15.792Z,98714.05
2019-01-10T01:30:43.778Z,98712.72
2019-01-10T01:33:11.760Z,98719.12
2019-01-10T01:35:40.344Z,98716.45
2019-01-10T01:38:10.807Z,98719.38
2019-01-10T01:40:39.991Z,98722.05
2019-01-10T01:45:11.528Z,98723.89
2019-01-10T01:47:38.994Z,98725.72
2019-01-10T01:50:14.009Z,98725.72
2019-01-10T01:52:41.397Z,98731.83
2019-01-10T01:55:08.950Z,98732.95
2019-01-10T01:57:37.257Z,98738.23
2019-01-10T02:00:09.254Z,98744.63
2019-01-10T02:02:36.698Z,98740.88
2019-01-10T02:05:03.969Z,98750.77
2019-01-10T02:07:31.429Z,98752.05
2019-01-10T02:09:59.989Z,98757.38
2019-01-10T02:12:28.343Z,98760.87
2019-01-10T02:14:56.956Z,98766.19
2019-01-10T02:17:26.430Z,98757.36
2019-01-10T02:19:54.276Z,98758.45
2019-01-10T02:22:22.729Z,98765.92
2019-01-10T02:24:50.909Z,98757.67
2019-01-10T02:27:19.430Z,98761.37
2019-01-10T02:29:47.420Z,98763.77
2019-01-10T02:32:16.055Z,98765.62
2019-01-10T02:34:44.439Z,98764.54
2019-01-10T02:37:12.507Z,98769.92
2019-01-10T02:39:40.625Z,98766.69
2019-01-10T02:42:09.251Z,98777.91
2019-01-10T02:44:37.619Z,98774.42
2019-01-10T02:47:05.852Z,98773.87
2019-01-10T02:49:34.254Z,98771.77
2019-01-10T02:52:01.815Z,98764.77
2019-01-10T02:54:30.252Z,98775.20
2019-01-10T02:56:57.877Z,98771.76
2019-01-10T02:59:25.251Z,98759.45
2019-01-10T03:01:52.787Z,98759.45
2019-01-10T03:04:19.753Z,98772.54
2019-01-10T03:06:47.107Z,98781.84
2019-01-10T03:09:14.750Z,98773.84
2019-01-10T03:11:42.120Z,98776.70
2019-01-10T03:14:09.413Z,98774.86
2019-01-10T03:16:36.621Z,98779.80
2019-01-10T03:19:04.262Z,98780.10
2019-01-10T03:21:31.466Z,98776.69
2019-01-10T03:23:58.752Z,98775.35
2019-01-10T03:26:26.248Z,98772.77
2019-01-10T03:28:54.109Z,98769.30
2019-01-10T03:31:21.752Z,98772.97
2019-01-10T03:33:49.251Z,98762.62
2019-01-10T03:36:17.076Z,98764.72
2019-01-10T03:38:45.257Z,98769.28
2019-01-10T03:41:12.808Z,98764.72
2019-01-10T03:43:47.434Z,98768.47
2019-01-10T03:46:14.881Z,98768.20
2019-01-10T03:48:42.462Z,98754.27
2019-01-10T03:51:10.446Z,98754.27
2019-01-10T03:53:37.996Z,98769.54
2019-01-10T03:56:05.687Z,98770.61
2019-01-10T03:58:33.493Z,98768.98
2019-01-10T04:01:01.054Z,98779.63
2019-01-10T04:03:28.486Z,98774.48
2019-01-10T04:05:55.778Z,98774.28
2019-01-10T04:08:22.659Z,98770.03
2019-01-10T04:10:50.254Z,98774.80
2019-01-10T04:13:17.703Z,98770.28
2019-01-10T04:15:44.974Z,98766.31
2019-01-10T04:18:12.467Z,98766.31
2019-01-10T04:20:39.824Z,98771.63
2019-01-10T04:23:08.104Z,98769.78
2019-01-10T04:25:35.631Z,98774.28
2019-01-10T04:28:02.880Z,98776.14
2019-01-10T04:30:30.741Z,98782.27
2019-01-10T04:32:58.532Z,98782.27
2019-01-10T04:35:26.079Z,98786.25
2019-01-10T04:37:54.467Z,98788.92
2019-01-10T04:40:21.962Z,98788.37
2019-01-10T04:42:49.418Z,98794.25
2019-01-10T04:45:16.753Z,98786.00
2019-01-10T04:47:43.631Z,98789.95
2019-01-10T04:50:11.065Z,98792.34
2019-01-10T04:52:41.450Z,98792.28
2019-01-10T04:55:09.489Z,98785.38
2019-01-10T04:57:36.834Z,98789.37
2019-01-10T05:00:10.116Z,98790.45
2019-01-10T05:02:37.462Z,98790.45
2019-01-10T05:05:05.438Z,98806.68
2019-01-10T05:07:33.366Z,98802.19
2019-01-10T05:10:00.804Z,98807.24
2019-01-10T05:12:28.100Z,98809.91
2019-01-10T05:14:55.909Z,98812.89
2019-01-10T05:17:23.461Z,98810.73
2019-01-10T05:19:50.774Z,98810.73
2019-01-10T05:22:18.338Z,98817.95
2019-01-10T05:24:46.106Z,98818.72
2019-01-10T05:27:13.897Z,98814.45
2019-01-10T05:29:41.468Z,98811.71
2019-01-10T05:32:08.785Z,98811.71
2019-01-10T05:34:35.986Z,98830.96
2019-01-10T05:37:03.368Z,98837.09
2019-01-10T05:39:30.662Z,98838.62
2019-01-10T05:41:58.638Z,98838.62
2019-01-10T05:44:27.052Z,98842.91
2019-01-10T05:46:55.088Z,98837.11
2019-01-10T05:49:23.252Z,98845.60
2019-01-10T05:51:51.441Z,98848.52
2019-01-10T05:54:20.636Z,98855.72
2019-01-10T05:56:48.257Z,98859.72
2019-01-10T05:59:15.506Z,98857.05
2019-01-10T06:01:43.444Z,98858.41
2019-01-10T06:04:10.781Z,98859.48
2019-01-10T06:06:37.990Z,98870.66
2019-01-10T06:09:08.511Z,98868.62
2019-01-10T06:11:35.841Z,98867.79
2019-01-10T06:14:03.472Z,98870.36
2019-01-10T06:16:30.777Z,98875.11
2019-01-10T06:18:57.954Z,98877.22
2019-01-10T06:21:25.923Z,98880.19
2019-01-10T06:23:54.457Z,98879.18
2019-01-10T06:26:21.957Z,98886.10
2019-01-10T06:28:49.258Z,98890.36
2019-01-10T06:31:16.797Z,98893.04
2019-01-10T06:33:44.625Z,98890.69
2019-01-10T06:36:11.840Z,98894.45
2019-01-10T06:38:39.255Z,98895.75
2019-01-10T06:41:07.353Z,98895.75
2019-01-10T06:43:34.627Z,98896.34
2019-01-10T06:46:02.536Z,98900.59
2019-01-10T06:48:29.831Z,98903.23
2019-01-10T06:50:57.750Z,98899.76
2019-01-10T06:53:25.001Z,98905.84
2019-01-10T06:55:52.725Z,98913.07
2019-01-10T06:58:19.914Z,98914.34
2019-01-10T07:00:47.783Z,98911.92
2019-01-10T07:03:15.373Z,98916.47
2019-01-10T07:05:42.902Z,98916.72
2019-01-10T07:08:10.255Z,98920.24
2019-01-10T07:10:37.466Z,98920.24
2019-01-10T07:13:05.446Z,98920.55
2019-01-10T07:15:33.375Z,98921.31
2019-01-10T07:18:01.098Z,98930.14
2019-01-10T07:20:28.562Z,98932.52
2019-01-10T07:22:55.802Z,98933.36
2019-01-10T07:25:23.934Z,98933.61
2019-01-10T07:27:51.946Z,98933.89
2019-01-10T07:30:25.438Z,98939.48
2019-01-10T07:32:53.011Z,98938.97
2019-01-10T07:35:20.412Z,98943.20
2019-01-10T07:37:52.753Z,98946.38
2019-01-10T07:40:20.616Z,98951.70
2019-01-10T07:42:48.244Z,98953.27
2019-01-10T07:45:18.750Z,98953.72
2019-01-10T07:47:49.363Z,98951.95
2019-01-10T07:50:27.914Z,98951.66
2019-01-10T07:52:55.248Z,98947.10
2019-01-10T07:55:22.601Z,98953.58
2019-01-10T07:57:50.429Z,98947.45
2019-01-10T08:00:18.248Z,98951.69
2019-01-10T08:02:45.480Z,98959.98
2019-01-10T08:05:12.881Z,98965.00
2019-01-10T08:07:40.248Z,98968.23
2019-01-10T08:10:11.514Z,98968.23
2019-01-10T08:12:39.015Z,98972.48
2019-01-10T08:15:11.939Z,98985.81
2019-01-10T08:17:38.754Z,98983.72
2019-01-10T08:20:06.024Z,98992.47
2019-01-10T08:22:33.615Z,98991.62
2019-01-10T08:25:00.896Z,98995.94
2019-01-10T08:27:28.479Z,99007.58
2019-01-10T08:29:55.774Z,99007.58
2019-01-10T08:32:22.635Z,99014.73
2019-01-10T08:34:51.321Z,99013.44
2019-01-10T08:37:18.914Z,99011.38
2019-01-10T08:39:46.626Z,99016.46
2019-01-10T08:42:14.250Z,99021.27
2019-01-10T08:44:41.686Z,99016.53
2019-01-10T08:47:08.978Z,99020.03
2019-01-10T08:49:36.600Z,99024.38
2019-01-10T08:52:03.915Z,99023.56
2019-01-10T08:54:31.380Z,99024.38
2019-01-10T08:56:58.775Z,99024.94
2019-01-10T08:59:28.070Z,99023.05
2019-01-10T09:01:56.382Z,99024.16
2019-01-10T09:04:24.009Z,99027.80
2019-01-10T09:06:51.973Z,99035.78
2019-01-10T09:09:19.253Z,99035.59
2019-01-10T09:11:47.214Z,99036.93
2019-01-10T09:14:15.475Z,99040.29
2019-01-10T09:16:42.777Z,99040.61
2019-01-10T09:19:10.485Z,99044.85
2019-01-10T09:21:38.498Z,99046.45
2019-01-10T09:24:06.245Z,99050.80
2019-01-10T09:26:37.601Z,99051.06
2019-01-10T09:29:02.778Z,99054.25
2019-01-10T09:31:30.246Z,99054.50
2019-01-10T09:33:58.134Z,99060.07
2019-01-10T09:36:25.401Z,99060.59
2019-01-10T09:38:53.346Z,99061.72
2019-01-10T09:41:20.613Z,99052.39
2019-01-10T09:43:48.961Z,99063.27
2019-01-10T09:46:16.541Z,99058.54
2019-01-10T09:48:43.904Z,99070.86
2019-01-10T09:51:12.268Z,99065.09
2019-01-10T09:53:39.483Z,99063.48
2019-01-10T09:56:06.765Z,99071.48
2019-01-10T09:58:34.105Z,99071.60
2019-01-10T10:01:01.541Z,99075.98
2019-01-10T10:03:29.696Z,99070.42
2019-01-10T10:05:56.968Z,99078.72
2019-01-10T10:08:25.038Z,99076.84
2019-01-10T10:10:52.489Z,99076.13
2019-01-10T10:13:20.053Z,99081.20
2019-01-10T10:15:52.418Z,99081.45
2019-01-10T10:20:58.100Z,99078.02
2019-01-10T10:23:26.986Z,99080.81
2019-01-10T10:25:54.483Z,99081.63
2019-01-10T10:28:22.828Z,99085.72
2019-01-10T10:30:50.877Z,99087.03
2019-01-10T10:33:18.246Z,99071.13
2019-01-10T10:35:45.795Z,99071.13
2019-01-10T10:38:13.457Z,99085.18
2019-01-10T10:40:40.736Z,99097.88
2019-01-10T10:43:07.854Z,99091.84
2019-01-10T10:45:35.245Z,99076.13
2019-01-10T10:48:02.495Z,99076.13
2019-01-10T10:50:29.862Z,99094.52
2019-01-10T10:52:57.326Z,99078.08
2019-01-10T10:55:24.702Z,99078.08
2019-01-10T10:57:51.977Z,99092.67
2019-01-10T11:00:23.241Z,99091.36
2019-01-10T11:02:51.388Z,99090.30
2019-01-10T11:05:19.402Z,99092.97
2019-01-10T11:07:47.245Z,99095.38
2019-01-10T11:10:16.487Z,99093.52
2019-01-10T11:12:43.752Z,99096.17
2019-01-10T11:15:10.906Z,99090.27
2019-01-10T11:17:38.242Z,99092.80
2019-01-10T11:20:09.795Z,99087.03
2019-01-10T11:22:37.801Z,99084.37
2019-01-10T11:25:08.964Z,99089.71
2019-01-10T11:27:37.242Z,99089.17
2019-01-10T11:30:05.792Z,99089.45
2019-01-10T11:32:33.241Z,99090.55
2019-01-10T11:35:00.486Z,99086.89
2019-01-10T11:37:28.086Z,99093.52
2019-01-10T11:39:55.697Z,99087.16
2019-01-10T11:42:22.686Z,99090.05
2019-01-10T11:44:49.923Z,99087.09
2019-01-10T11:47:17.695Z,99085.52
2019-01-10T11:49:44.593Z,99085.29
2019-01-10T11:52:11.859Z,99085.22
2019-01-10T11:54:39.854Z,99081.02
2019-01-10T11:57:07.750Z,99079.89
2019-01-10T11:59:37.368Z,99079.89
2019-01-10T12:02:04.887Z,99081.70
2019-01-10T12:04:32.592Z,99065.40
2019-01-10T12:06:59.880Z,99065.40
2019-01-10T12:09:27.425Z,99075.38
2019-01-10T12:11:55.240Z,99075.38
2019-01-10T12:14:23.335Z,99082.89
2019-01-10T12:16:51.250Z,99077.30
2019-01-10T12:19:18.818Z,99074.36
2019-01-10T12:21:46.435Z,99074.92
2019-01-10T12:24:14.748Z,99074.13
2019-01-10T12:26:41.603Z,99070.14
2019-01-10T12:29:09.462Z,99066.14
2019-01-10T12:31:37.383Z,99066.14
2019-01-10T12:34:05.202Z,99069.09
2019-01-10T12:36:33.251Z,99064.08
2019-01-10T12:39:00.725Z,99069.44
2019-01-10T12:41:27.872Z,99063.34
2019-01-10T12:43:55.246Z,99066.23
2019-01-10T12:46:22.786Z,99061.64
2019-01-10T12:48:50.438Z,99063.74
2019-01-10T12:51:18.006Z,99065.73
2019-01-10T12:53:45.608Z,99062.58
2019-01-10T12:56:13.243Z,99060.67
2019-01-10T12:58:40.821Z,99057.25
2019-01-10T13:01:08.139Z,99062.27
2019-01-10T13:03:35.420Z,99062.75
2019-01-10T13:06:03.048Z,99065.73
2019-01-10T13:08:30.693Z,99067.59
2019-01-10T13:10:57.646Z,99060.91
2019-01-10T13:13:25.617Z,99064.67
2019-01-10T13:15:52.851Z,99067.28
2019-01-10T13:18:20.489Z,99067.58
2019-01-10T13:20:47.983Z,99067.58
2019-01-10T13:23:15.813Z,99072.07
2019-01-10T13:25:43.514Z,99078.47
2019-01-10T13:28:11.430Z,99076.84
2019-01-10T13:30:38.710Z,99073.41
2019-01-10T13:33:05.820Z,99080.33
2019-01-10T13:35:33.746Z,99076.80
2019-01-10T13:38:00.893Z,99085.39
2019-01-10T13:40:28.872Z,99074.72
2019-01-10T13:42:56.446Z,99082.23
2019-01-10T13:45:24.105Z,99082.23
2019-01-10T13:47:51.411Z,99086.70
2019-01-10T13:50:25.764Z,99082.73
2019-01-10T13:52:52.811Z,99084.05
2019-01-10T13:55:20.153Z,99091.22
2019-01-10T13:57:47.369Z,99087.49
2019-01-10T14:00:21.614Z,99086.95
2019-01-10T14:02:48.876Z,99095.73
2019-01-10T14:05:17.061Z,99094.88
2019-01-10T14:07:44.524Z,99094.88
2019-01-10T14:10:13.125Z,99100.78
2019-01-10T14:12:41.400Z,99104.48
2019-01-10T14:15:11.938Z,99100.21
2019-01-10T14:17:39.245Z,99102.65
2019-01-10T14:20:08.331Z,99104.80
2019-01-10T14:22:35.901Z,99107.98
2019-01-10T14:25:03.966Z,99111.20
2019-01-10T14:27:31.500Z,99111.20
2019-01-10T14:29:58.745Z,99108.80
2019-01-10T14:32:25.677Z,99110.98
2019-01-10T14:34:53.486Z,99116.05
2019-01-10T14:37:21.235Z,99113.38
2019-01-10T14:39:49.011Z,99114.12
2019-01-10T14:42:16.567Z,99113.11
2019-01-10T14:44:44.027Z,99113.11
2019-01-10T14:47:11.639Z,99119.20
2019-01-10T14:49:39.247Z,99127.66
2019-01-10T14:52:06.459Z,99126.86
2019-01-10T14:54:34.674Z,99136.45
2019-01-10T14:57:01.980Z,99139.34
2019-01-10T14:59:29.440Z,99137.25
2019-01-10T15:01:56.748Z,99144.38
2019-01-10T15:04:23.596Z,99145.83
2019-01-10T15:06:51.740Z,99148.97
2019-01-10T15:09:19.698Z,99143.56
2019-01-10T15:11:47.297Z,99150.34
2019-01-10T15:14:16.327Z,99155.67
2019-01-10T15:16:43.971Z,99161.57
2019-01-10T15:19:11.603Z,99169.56
2019-01-10T15:21:39.204Z,99161.00
2019-01-10T15:24:06.500Z,99167.66
2019-01-10T15:26:34.778Z,99166.08
2019-01-10T15:29:01.927Z,99167.64
2019-01-10T15:31:29.456Z,99166.33
2019-01-10T15:33:57.249Z,99169.27
2019-01-10T15:36:25.070Z,99171.66
2019-01-10T15:38:52.874Z,99165.27
2019-01-10T15:41:20.846Z,99173.75
2019-01-10T15:43:48.704Z,99173.75
2019-01-10T15:46:15.948Z,99179.08
2019-01-10T15:48:43.601Z,99180.64
2019-01-10T15:51:11.251Z,99179.88
2019-01-10T15:53:39.248Z,99182.79
2019-01-10T15:56:07.061Z,99134.45
2019-01-10T15:58:35.432Z,99188.22
2019-01-10T16:01:02.705Z,99186.54
2019-01-10T16:03:30.224Z,99187.13
2019-01-10T16:05:57.795Z,99188.63
2019-01-10T16:08:25.929Z,99192.41
2019-01-10T16:10:53.531Z,99194.45
2019-01-10T16:13:21.468Z,99190.19
2019-01-10T16:15:48.727Z,99189.12
2019-01-10T16:18:15.608Z,99196.09
2019-01-10T16:20:43.609Z,99196.03
2019-01-10T16:23:10.834Z,99199.48
2019-01-10T16:25:38.737Z,99208.27
2019-01-10T16:28:05.612Z,99202.34
2019-01-10T16:30:33.249Z,99209.33
2019-01-10T16:33:00.796Z,99209.08
2019-01-10T16:35:28.777Z,99214.66
2019-01-10T16:37:56.114Z,99210.58
2019-01-10T16:40:23.452Z,99217.56
2019-01-10T16:42:51.379Z,99218.02
2019-01-10T16:45:28.480Z,99218.66
2019-01-10T16:47:56.429Z,99217.08
2019-01-10T16:50:24.069Z,99220.25
2019-01-10T16:52:51.635Z,99222.73
2019-01-10T16:55:18.886Z,99215.52
2019-01-10T16:57:46.248Z,99216.91
2019-01-10T17:00:39.689Z,99216.91
2019-01-10T17:03:07.614Z,99221.89
2019-01-10T17:05:35.020Z,99216.02
2019-01-10T17:08:02.604Z,99217.89
2019-01-10T17:10:29.921Z,99218.14
2019-01-10T17:12:57.500Z,99219.82
2019-01-10T17:15:25.334Z,99226.75
2019-01-10T17:17:53.516Z,99221.50
2019-01-10T17:20:22.945Z,99225.31
2019-01-10T17:22:50.577Z,99233.06
2019-01-10T17:25:19.467Z,99231.48
2019-01-10T17:27:47.327Z,99234.99
2019-01-10T17:30:23.795Z,99229.58
2019-01-10T17:32:50.627Z,99226.31
2019-01-10T17:35:20.224Z,99227.00
2019-01-10T17:37:47.911Z,99235.16
2019-01-10T17:40:17.017Z,99233.66
2019-01-10T17:42:44.873Z,99233.66
2019-01-10T17:45:15.411Z,99232.30
2019-01-10T17:47:44.207Z,99232.30
2019-01-10T17:50:13.612Z,99237.70
2019-01-10T17:52:40.905Z,99243.80
2019-01-10T17:55:08.267Z,99249.91
2019-01-10T17:57:35.482Z,99254.78
2019-01-10T18:00:03.101Z,99251.58
2019-01-10T18:02:30.376Z,99261.14
2019-01-10T18:04:58.440Z,99261.36
2019-01-10T18:07:26.326Z,99265.01
2019-01-10T18:09:53.604Z,99264.22
2019-01-10T18:12:20.911Z,99269.52
2019-01-10T18:14:49.070Z,99266.88
2019-01-10T18:17:16.533Z,99271.72
2019-01-10T18:19:44.330Z,99269.33
2019-01-10T18:22:12.014Z,99268.84
2019-01-10T18:24:39.375Z,99273.25
2019-01-10T18:27:06.620Z,99277.49
2019-01-10T18:29:33.913Z,99274.95
2019-01-10T18:32:01.261Z,99281.97
2019-01-10T18:34:28.593Z,99281.97
2019-01-10T18:36:55.845Z,99285.40
2019-01-10T18:39:23.220Z,99287.77
2019-01-10T18:41:50.599Z,99284.11
2019-01-10T18:44:17.848Z,99291.52
2019-01-10T18:46:45.442Z,99289.83
2019-01-10T18:49:13.396Z,99287.75
2019-01-10T18:51:41.018Z,99290.95
2019-01-10T18:54:08.575Z,99292.30
2019-01-10T18:56:35.857Z,99289.61
2019-01-10T18:59:09.240Z,99290.02
2019-01-10T19:01:36.455Z,99291.22
2019-01-10T19:04:03.804Z,99290.16
2019-01-10T19:06:31.001Z,99291.36
2019-01-10T19:08:58.738Z,99295.44
2019-01-10T19:11:25.756Z,99294.21
2019-01-10T19:13:53.813Z,99286.57
2019-01-10T19:16:21.438Z,99293.05
2019-01-10T19:18:50.253Z,99286.81
2019-01-10T19:21:17.791Z,99292.77
2019-01-10T19:23:45.611Z,99297.66
2019-01-10T19:26:13.498Z,99292.30
2019-01-10T19:28:41.060Z,99296.08
2019-01-10T19:31:08.427Z,99300.66
2019-01-10T19:33:35.858Z,99301.66
2019-01-10T19:36:03.713Z,99302.58
2019-01-10T19:38:30.606Z,99302.58
2019-01-10T19:40:58.284Z,99298.09
2019-01-10T19:43:25.783Z,99297.64
2019-01-10T19:45:52.650Z,99293.89
2019-01-10T19:48:19.971Z,99296.77
2019-01-10T19:50:49.240Z,99294.67
2019-01-10T19:53:17.235Z,99298.72
2019-01-10T19:55:44.954Z,99301.96
2019-01-10T19:58:12.428Z,99299.08
2019-01-10T20:00:43.595Z,99310.80
2019-01-10T20:03:11.478Z,99306.34
2019-01-10T20:05:39.042Z,99311.43
2019-01-10T20:08:06.378Z,99313.61
2019-01-10T20:10:33.956Z,99315.45
2019-01-10T20:13:01.250Z,99314.63
2019-01-10T20:15:28.487Z,99320.54
2019-01-10T20:17:56.245Z,99321.03
2019-01-10T20:20:36.240Z,99325.02
2019-01-10T20:23:06.489Z,99331.55
2019-01-10T20:25:34.242Z,99329.92
2019-01-10T20:28:01.732Z,99329.92
2019-01-10T20:30:28.852Z,99334.25
2019-01-10T20:32:56.826Z,99319.88
2019-01-10T20:35:24.480Z,99319.88
2019-01-10T20:37:51.908Z,99331.47
2019-01-10T20:40:19.468Z,99332.80
2019-01-10T20:42:47.241Z,99337.02
2019-01-10T20:45:14.760Z,99335.83
2019-01-10T20:47:42.064Z,99332.29
2019-01-10T20:50:09.678Z,99334.14
2019-01-10T20:52:37.702Z,99335.47
2019-01-10T20:55:05.704Z,99342.14
2019-01-10T20:57:33.272Z,99342.71
2019-01-10T21:00:01.343Z,99344.45
2019-01-10T21:02:28.893Z,99343.39
2019-01-10T21:04:56.897Z,99331.25
2019-01-10T21:07:24.496Z,99345.24
2019-01-10T21:09:52.045Z,99345.24
2019-01-10T21:12:19.369Z,99346.84
2019-01-10T21:14:46.761Z,99342.48
2019-01-10T21:17:13.590Z,99347.33
2019-01-10T21:19:41.241Z,99353.64
2019-01-10T21:22:08.490Z,99348.88
2019-01-10T21:24:36.356Z,99345.64
2019-01-10T21:27:03.596Z,99344.09
2019-01-10T21:29:31.492Z,99338.63
2019-01-10T21:31:59.046Z,99342.58
2019-01-10T21:34:26.508Z,99342.95
2019-01-10T21:36:55.548Z,99350.43
2019-01-10T21:39:23.395Z,99352.49
2019-01-10T21:41:51.237Z,99356.03
2019-01-10T21:44:19.678Z,99356.94
2019-01-10T21:46:47.240Z,99356.58
2019-01-10T21:49:14.817Z,99362.84
2019-01-10T21:51:42.795Z,99361.99
2019-01-10T21:54:09.714Z,99360.66
2019-01-10T21:56:36.838Z,99362.21
2019-01-10T21:59:04.319Z,99346.56
2019-01-10T22:01:31.611Z,99346.56
2019-01-10T22:04:00.321Z,99359.24
2019-01-10T22:06:28.239Z,99359.06
2019-01-10T22:08:55.806Z,99352.09
2019-01-10T22:11:23.335Z,99359.22
2019-01-10T22:13:50.619Z,99355.46
2019-01-10T22:16:17.877Z,99353.04
2019-01-10T22:18:45.379Z,99354.31
2019-01-10T22:21:12.865Z,99319.62
2019-01-10T22:23:40.234Z,99355.09
2019-01-10T22:26:08.848Z,99355.09
2019-01-10T22:28:37.249Z,99353.49
2019-01-10T22:31:04.651Z,99333.86
2019-01-10T22:33:32.526Z,99342.62
2019-01-10T22:36:01.248Z,99337.43
2019-01-10T22:38:29.234Z,99345.10
2019-01-10T22:40:56.808Z,99329.55
2019-01-10T22:43:57.234Z,99335.91
2019-01-10T22:46:24.438Z,99343.61
2019-01-10T22:48:51.868Z,99339.91
2019-01-10T22:51:19.593Z,99346.48
2019-01-10T22:53:47.700Z,99346.48
2019-01-10T22:56:15.387Z,99344.39
2019-01-10T22:58:42.815Z,99343.61
2019-01-10T23:01:46.965Z,99341.81
2019-01-10T23:04:18.872Z,99342.14
2019-01-10T23:06:46.599Z,99336.42
2019-01-10T23:09:13.839Z,99336.42
2019-01-10T23:11:41.818Z,99338.49
2019-01-10T23:14:09.445Z,99337.64
2019-01-10T23:16:37.419Z,99341.23
2019-01-10T23:19:05.940Z,99339.41
2019-01-10T23:21:39.033Z,99336.17
2019-01-10T23:24:15.056Z,99337.48
2019-01-10T23:26:53.245Z,99342.02
2019-01-10T23:29:20.973Z,99346.62
2019-01-10T23:31:49.140Z,99345.74
2019-01-10T23:34:16.944Z,99346.83
2019-01-10T23:36:50.744Z,99344.17
2019-01-10T23:39:21.029Z,99341.56
2019-01-10T23:41:50.809Z,99336.50
2019-01-10T23:49:12.238Z,99333.11
2019-01-10T23:51:39.987Z,99337.20
2019-01-10T23:54:07.755Z,99342.78
2019-01-10T23:56:34.612Z,99346.56
2019-01-10T23:59:02.246Z,99353.98
